Time;durP1;ratioP1;P1;durP2;ratioP2;P2;SDS_P1;SDS_P2;PMS_P1;PMS_P2;Temp;Humidity;BMP_temperature;BMP_pressure;BME280_temperature;BME280_humidity;BME280_pressure;Samples;Min_cycle;Max_cycle;Signal;HPM_P1;HPM_P2
2023/11/16 00:04:19;;;;;;;0.10;0.10;;;;;;;7.38;80.69;100896.94;15600286;28;20053;-52
2023/11/16 00:11:54;;;;;;;0.00;0.00;;;;;;;6.92;82.07;100897.13;15593979;28;20542;-48
2023/11/16 00:19:28;;;;;;;0.00;0.00;;;;;;;7.47;80.32;100895.00;15603370;28;20076;-49
2023/11/16 00:27:03;;;;;;;0.20;0.20;;;;;;;7.19;80.38;100894.84;15609821;28;20196;-47
2023/11/16 00:34:37;;;;;;;0.00;0.00;;;;;;;7.44;79.48;100885.50;15606203;28;20045;-51
2023/11/16 00:42:12;;;;;;;0.00;0.00;;;;;;;7.22;79.49;100875.75;15614917;28;20045;-50
2023/11/16 00:49:51;;;;;;;1.55;1.45;;;;;;;7.26;79.84;100875.22;15628255;28;20539;-49
2023/11/16 00:57:26;;;;;;;0.90;0.60;;;;;;;7.10;80.33;100870.91;15611955;28;20041;-54
2023/11/16 01:04:59;;;;;;;0.00;0.00;;;;;;;6.96;81.07;100874.41;15614411;28;20094;-50
2023/11/16 01:12:33;;;;;;;0.00;0.00;;;;;;;6.86;81.41;100877.34;15602801;28;20054;-45
2023/11/16 01:20:18;;;;;;;1.55;0.73;;;;;;;7.20;80.97;100872.47;15610815;28;20050;-46
2023/11/16 01:27:57;;;;;;;0.00;0.00;;;;;;;7.36;80.69;100873.06;15603387;28;20108;-53
2023/11/16 01:35:31;;;;;;;0.00;0.00;;;;;;;7.44;81.17;100872.16;15610635;28;20300;-52
2023/11/16 01:43:07;;;;;;;0.10;0.10;;;;;;;7.13;81.84;100859.88;15626244;28;20057;-50
2023/11/16 01:50:43;;;;;;;0.00;0.00;;;;;;;7.23;82.08;100851.56;15614114;28;20045;-55
2023/11/16 01:58:18;;;;;;;0.43;0.43;;;;;;;7.32;81.73;100846.94;15603722;28;20077;-51
2023/11/16 02:05:51;;;;;;;0.00;0.00;;;;;;;7.28;81.63;100832.31;15607865;28;20571;-50
2023/11/16 02:13:26;;;;;;;;;;;;;;;7.39;81.60;100837.19;15608537;28;20087;-54
2023/11/16 02:20:59;;;;;;;0.08;0.08;;;;;;;7.50;81.64;100835.84;15608189;28;19921;-53
2023/11/16 02:28:34;;;;;;;0.00;0.00;;;;;;;7.41;81.58;100829.78;15605278;28;20099;-52
2023/11/16 02:36:10;;;;;;;0.10;0.10;;;;;;;7.22;82.15;100835.72;15602919;28;20111;-51
2023/11/16 02:43:48;;;;;;;0.00;0.00;;;;;;;7.32;82.57;100831.75;15604670;28;20469;-53
2023/11/16 02:51:22;;;;;;;0.00;0.00;;;;;;;7.61;81.34;100814.00;15604248;28;20686;-56
2023/11/16 02:59:01;;;;;;;0.30;0.30;;;;;;;7.44;81.93;100810.72;15603894;28;20127;-55
2023/11/16 03:06:35;;;;;;;0.10;0.10;;;;;;;7.44;81.78;100809.91;15596180;28;20372;-51
2023/11/16 03:14:10;;;;;;;0.05;0.05;;;;;;;7.87;80.12;100802.75;15603376;28;20049;-48
2023/11/16 03:21:43;;;;;;;0.00;0.00;;;;;;;7.53;80.73;100811.44;15619433;28;20085;-54
2023/11/16 03:29:20;;;;;;;0.00;0.00;;;;;;;7.78;79.60;100807.41;15602818;28;20060;-56
2023/11/16 03:36:58;;;;;;;0.10;0.10;;;;;;;7.89;78.58;100806.91;15618876;28;20141;-57
2023/11/16 03:44:33;;;;;;;0.00;0.00;;;;;;;7.71;79.06;100792.34;15599134;28;20092;-56
2023/11/16 03:52:08;;;;;;;0.00;0.00;;;;;;;7.62;79.46;100797.78;15586624;28;20140;-59
2023/11/16 03:59:47;;;;;;;0.00;0.00;;;;;;;7.66;79.54;100799.06;15596090;28;20042;-51
2023/11/16 04:07:27;;;;;;;0.13;0.13;;;;;;;7.61;79.71;100790.78;15604710;28;20508;-53
2023/11/16 04:15:04;;;;;;;0.05;0.05;;;;;;;7.66;79.66;100779.53;15605411;28;20103;-51
2023/11/16 04:22:40;;;;;;;0.40;0.40;;;;;;;7.59;79.21;100775.97;15579123;28;20060;-57
2023/11/16 04:30:17;;;;;;;0.00;0.00;;;;;;;7.65;78.85;100776.06;15601449;28;20092;-52
2023/11/16 04:37:53;;;;;;;0.00;0.00;;;;;;;7.57;79.36;100759.31;15601805;28;20069;-57
2023/11/16 04:45:29;;;;;;;0.00;0.00;;;;;;;7.54;79.70;100763.19;15602500;28;20109;-56
2023/11/16 04:53:03;;;;;;;0.15;0.15;;;;;;;7.62;79.54;100754.22;15584122;28;20247;-53
2023/11/16 05:00:41;;;;;;;0.00;0.00;;;;;;;7.50;79.38;100743.19;15599040;28;20046;-53
2023/11/16 05:08:15;;;;;;;0.00;0.00;;;;;;;7.76;78.54;100741.81;15601106;28;20049;-52
2023/11/16 05:15:50;;;;;;;0.00;0.00;;;;;;;7.63;79.38;100710.47;15609720;28;20049;-54
2023/11/16 05:23:25;;;;;;;0.05;0.05;;;;;;;7.38;79.81;100716.19;15612914;28;20091;-55
2023/11/16 05:31:01;;;;;;;0.00;0.00;;;;;;;7.60;79.46;100705.50;15611600;28;20365;-57
2023/11/16 05:38:40;;;;;;;0.10;0.10;;;;;;;7.47;79.62;100706.22;15620418;28;20042;-55
2023/11/16 05:46:14;;;;;;;0.00;0.00;;;;;;;7.41;79.52;100712.28;15607008;28;20132;-58
2023/11/16 05:53:50;;;;;;;0.00;0.00;;;;;;;7.32;79.95;100708.09;15611372;28;20084;-55
2023/11/16 06:01:28;;;;;;;0.10;0.10;;;;;;;7.38;78.93;100702.00;15610265;28;20057;-56
2023/11/16 06:09:01;;;;;;;0.32;0.32;;;;;;;7.61;78.92;100701.81;15600577;28;20378;-56
2023/11/16 06:16:43;;;;;;;0.00;0.00;;;;;;;7.45;78.84;100700.22;15601999;28;20037;-57
2023/11/16 06:24:18;;;;;;;0.00;0.00;;;;;;;7.79;77.50;100696.84;15609055;28;20156;-49
2023/11/16 06:31:53;;;;;;;0.20;0.20;;;;;;;7.68;78.23;100698.19;15610402;28;20076;-53
2023/11/16 06:39:26;;;;;;;0.00;0.00;;;;;;;7.60;77.95;100687.66;15607943;28;20091;-50
2023/11/16 06:47:04;;;;;;;0.00;0.00;;;;;;;7.62;77.55;100674.91;15608044;28;20045;-47
2023/11/16 06:54:39;;;;;;;0.00;0.00;;;;;;;7.67;77.03;100683.16;15599525;28;20049;-52
2023/11/16 07:02:14;;;;;;;0.00;0.00;;;;;;;7.71;76.95;100680.94;15605353;28;20041;-50
2023/11/16 07:09:50;;;;;;;0.00;0.00;;;;;;;7.75;76.77;100682.22;15601584;28;20125;-51
2023/11/16 07:17:26;;;;;;;0.65;0.65;;;;;;;7.79;76.02;100683.50;15604665;28;20045;-51
2023/11/16 07:25:04;;;;;;;0.00;0.00;;;;;;;7.77;76.52;100685.50;15605576;23;20566;-52
2023/11/16 07:32:40;;;;;;;0.10;0.10;;;;;;;8.10;75.16;100685.75;15522765;28;20048;-52
2023/11/16 07:40:15;;;;;;;0.20;0.20;;;;;;;7.59;76.75;100655.75;15548346;28;20117;-55
2023/11/16 07:47:51;;;;;;;0.00;0.00;;;;;;;7.84;76.77;100681.06;15548811;28;20137;-53
2023/11/16 07:55:26;;;;;;;0.00;0.00;;;;;;;7.67;77.37;100693.03;15522370;28;20501;-51
2023/11/16 08:10:56;;;;;;;0.00;0.00;;;;;;;7.41;79.79;100697.13;15543093;28;20131;-56
2023/11/16 08:18:32;;;;;;;;;;;;;;;7.56;79.93;100696.22;15547848;28;20496;-52
2023/11/16 08:26:07;;;;;;;0.00;0.00;;;;;;;7.31;78.55;100645.84;15537004;28;19922;-54
2023/11/16 08:33:42;;;;;;;0.10;0.10;;;;;;;7.74;78.09;100703.75;15538181;28;20551;-56
2023/11/16 08:41:17;;;;;;;0.00;0.00;;;;;;;7.95;78.29;100709.09;15538302;28;20038;-55
2023/11/16 08:48:53;;;;;;;0.00;0.00;;;;;;;8.07;77.63;100720.91;15553975;28;20128;-52
2023/11/16 08:56:27;;;;;;;0.00;0.00;;;;;;;7.93;77.94;100713.81;15549847;28;20457;-50
2023/11/16 09:04:02;;;;;;;0.05;0.05;;;;;;;7.75;77.62;100718.81;15557823;28;20046;-52
2023/11/16 09:11:35;;;;;;;0.00;0.00;;;;;;;7.82;77.14;100717.00;15536230;28;20046;-51
2023/11/16 09:19:14;;;;;;;0.00;0.00;;;;;;;8.03;76.14;100713.47;15551988;28;20427;-48
2023/11/16 09:26:48;;;;;;;0.00;0.00;;;;;;;8.05;76.61;100698.88;15554400;28;20042;-52
2023/11/16 09:34:23;;;;;;;0.22;0.22;;;;;;;8.32;76.11;100701.75;15553708;28;20048;-54
2023/11/16 09:42:00;;;;;;;0.00;0.00;;;;;;;8.21;75.98;100705.78;15550913;28;20663;-50
2023/11/16 09:49:38;;;;;;;0.00;0.00;;;;;;;8.18;76.88;100700.84;15549986;28;20042;-53
2023/11/16 09:57:19;;;;;;;0.00;0.00;;;;;;;8.97;74.72;100695.09;15527409;28;20271;-52
2023/11/16 10:05:01;;;;;;;0.77;0.65;;;;;;;9.16;73.71;100680.94;15553215;28;20051;-50
2023/11/16 10:12:49;;;;;;;0.10;0.10;;;;;;;8.77;74.88;100678.16;15550075;28;20061;-53
2023/11/16 10:20:24;;;;;;;0.00;0.00;;;;;;;8.50;75.41;100666.50;15497459;28;20138;-53
2023/11/16 10:27:58;;;;;;;0.43;0.43;;;;;;;8.76;75.87;100663.09;15489148;28;20138;-54
2023/11/16 10:35:34;;;;;;;0.15;0.15;;;;;;;8.48;73.07;100655.97;15488406;28;20038;-51
2023/11/16 10:43:08;;;;;;;0.00;0.00;;;;;;;8.02;72.25;100648.50;15500631;28;20067;-55
2023/11/16 10:50:44;;;;;;;0.00;0.00;;;;;;;8.03;71.66;100668.03;15548659;28;20521;-53
2023/11/16 10:58:21;;;;;;;0.00;0.00;;;;;;;7.70;69.58;100662.44;15528577;28;20041;-52
2023/11/16 11:05:58;;;;;;;0.00;0.00;;;;;;;8.21;69.00;100667.50;15542649;28;20057;-52
2023/11/16 11:13:33;;;;;;;0.00;0.00;;;;;;;7.72;68.64;100663.06;15544685;28;20053;-55
2023/11/16 11:21:10;;;;;;;0.00;0.00;;;;;;;7.84;68.62;100662.34;15507102;28;20046;-52
2023/11/16 11:28:43;;;;;;;0.00;0.00;;;;;;;8.58;66.38;100664.47;15500383;28;20043;-50
2023/11/16 11:36:20;;;;;;;0.00;0.00;;;;;;;10.18;60.98;100630.63;15468696;28;20435;-51
2023/11/16 11:44:04;;;;;;;0.00;0.00;;;;;;;9.47;61.00;100628.66;15505629;28;20527;-52
2023/11/16 11:51:43;;;;;;;0.00;0.00;;;;;;;9.93;60.47;100612.53;15547674;28;20119;-54
2023/11/16 11:59:19;;;;;;;0.00;0.00;;;;;;;9.42;59.77;100617.75;15547039;28;20496;-52
2023/11/16 12:06:55;;;;;;;4.32;1.77;;;;;;;9.21;61.56;100624.09;15546262;28;20125;-50
2023/11/16 12:14:36;;;;;;;0.00;0.00;;;;;;;9.12;60.67;100646.72;15544851;28;20046;-53
2023/11/16 12:22:12;;;;;;;0.00;0.00;;;;;;;11.43;53.70;100636.47;15546732;28;20531;-51
2023/11/16 12:29:54;;;;;;;0.00;0.00;;;;;;;11.88;52.29;100626.34;15553847;28;20056;-54
2023/11/16 12:37:31;;;;;;;0.00;0.00;;;;;;;11.86;52.20;100614.19;15553963;28;20064;-51
2023/11/16 12:45:07;;;;;;;0.00;0.00;;;;;;;10.49;55.73;100608.47;15535369;28;20114;-58
2023/11/16 12:52:47;;;;;;;0.00;0.00;;;;;;;11.19;54.40;100603.97;15490482;28;20046;-50
2023/11/16 13:00:23;;;;;;;0.00;0.00;;;;;;;9.52;57.71;100607.44;15494251;28;20053;-54
2023/11/16 13:08:01;;;;;;;0.00;0.00;;;;;;;9.82;56.51;100604.31;15491593;28;20082;-55
2023/11/16 13:15:38;;;;;;;0.00;0.00;;;;;;;9.68;57.35;100607.00;15491290;28;20440;-53
2023/11/16 13:23:13;;;;;;;0.00;0.00;;;;;;;9.27;57.73;100585.75;15489691;28;20257;-56
2023/11/16 13:30:46;;;;;;;0.00;0.00;;;;;;;9.00;58.13;100600.16;15603114;23;20049;-47
2023/11/16 13:38:22;;;;;;;0.00;0.00;;;;;;;8.58;59.79;100588.72;15596475;28;20044;-50
2023/11/16 13:45:57;;;;;;;0.00;0.00;;;;;;;9.09;58.72;100583.72;15583888;28;20058;-45
2023/11/16 13:53:32;;;;;;;0.00;0.00;;;;;;;8.65;58.70;100585.06;15552926;28;20046;-49
2023/11/16 14:01:08;;;;;;;0.00;0.00;;;;;;;8.51;59.17;100591.38;15535150;28;20038;-49
2023/11/16 14:08:43;;;;;;;0.00;0.00;;;;;;;8.43;58.60;100579.00;15606421;28;20045;-46
2023/11/16 14:16:16;;;;;;;11.50;0.55;;;;;;;8.31;59.97;100582.44;15612765;28;20057;-49
2023/11/16 14:23:54;;;;;;;0.00;0.00;;;;;;;8.18;60.27;100576.00;15593291;28;20407;-53
2023/11/16 14:31:28;;;;;;;0.00;0.00;;;;;;;8.09;60.76;100587.06;15608072;28;20042;-47
2023/11/16 14:39:03;;;;;;;0.10;0.10;;;;;;;7.75;61.66;100591.38;15609680;28;20037;-47
2023/11/16 14:46:41;;;;;;;0.00;0.00;;;;;;;7.94;62.11;100571.16;15556711;28;20080;-49
2023/11/16 14:54:15;;;;;;;0.00;0.00;;;;;;;7.68;62.59;100582.47;15533884;28;20061;-48
2023/11/16 15:01:49;;;;;;;0.20;0.20;;;;;;;7.76;63.07;100565.47;15557559;28;20048;-46
2023/11/16 15:09:24;;;;;;;0.00;0.00;;;;;;;6.98;65.09;100570.00;15552523;28;20050;-51
2023/11/16 15:17:00;;;;;;;0.00;0.00;;;;;;;7.03;65.48;100562.25;15548041;28;20274;-45
2023/11/16 15:24:35;;;;;;;0.90;0.47;;;;;;;7.00;65.39;100558.13;15548111;28;20069;-50
2023/11/16 15:32:17;;;;;;;0.00;0.00;;;;;;;6.98;64.38;100525.44;15548080;28;20405;-46
2023/11/16 15:39:53;;;;;;;0.00;0.00;;;;;;;7.46;63.92;100560.34;15546970;28;20042;-45
2023/11/16 15:47:27;;;;;;;0.00;0.00;;;;;;;7.33;63.95;100554.91;15528033;28;20169;-53
2023/11/16 15:55:07;;;;;;;0.10;0.10;;;;;;;7.04;64.80;100547.88;15543711;28;20052;-49
2023/11/16 16:02:41;;;;;;;0.17;0.17;;;;;;;7.00;65.33;100542.13;15586931;28;20053;-48
2023/11/16 16:10:17;;;;;;;0.10;0.10;;;;;;;6.70;66.42;100543.25;15576812;28;20085;-50
2023/11/16 16:17:53;;;;;;;0.38;0.38;;;;;;;6.57;66.78;100546.59;15591523;28;20148;-51
2023/11/16 16:25:28;;;;;;;0.22;0.22;;;;;;;6.62;66.47;100550.38;15585422;28;20049;-51
2023/11/16 16:33:04;;;;;;;0.05;0.05;;;;;;;6.60;67.00;100556.88;15590683;28;20585;-51
2023/11/16 16:40:40;;;;;;;0.10;0.10;;;;;;;6.48;67.67;100553.91;15606160;28;20057;-50
2023/11/16 16:48:17;;;;;;;0.57;0.57;;;;;;;6.41;67.85;100566.31;15607060;28;20415;-49
2023/11/16 16:55:52;;;;;;;2.63;2.17;;;;;;;6.81;66.39;100562.25;15605422;28;20077;-52
2023/11/16 17:03:25;;;;;;;2.47;1.80;;;;;;;6.35;66.48;100567.91;15603121;28;20049;-46
2023/11/16 17:11:00;;;;;;;2.25;1.25;;;;;;;6.20;67.59;100579.56;15608690;28;20048;-50
2023/11/16 17:18:36;;;;;;;1.80;1.05;;;;;;;5.77;68.63;100595.34;15617463;28;20059;-52
2023/11/16 17:26:11;;;;;;;1.85;0.90;;;;;;;5.36;70.45;100598.41;15599530;28;20049;-52
2023/11/16 17:33:44;;;;;;;3.88;1.70;;;;;;;5.12;70.70;100620.72;15619370;28;20075;-50
2023/11/16 17:41:19;;;;;;;;;;;;;;;4.92;71.21;100632.84;15615732;28;20133;-52
2023/11/16 17:48:54;;;;;;;0.00;0.00;;;;;;;4.94;72.73;100636.13;15606801;28;19935;-49
2023/11/16 17:56:29;;;;;;;0.30;0.30;;;;;;;4.47;74.62;100621.94;15621124;28;20034;-49
2023/11/16 18:04:02;;;;;;;0.05;0.05;;;;;;;4.91;71.61;100620.53;15592552;28;20119;-46
2023/11/16 18:11:41;;;;;;;0.00;0.00;;;;;;;4.78;71.75;100618.44;15607256;28;20137;-49
2023/11/16 18:19:14;;;;;;;0.00;0.00;;;;;;;5.05;70.79;100617.13;15614390;28;20076;-51
2023/11/16 18:26:54;;;;;;;1.20;0.50;;;;;;;5.03;70.13;100619.13;15615200;28;20104;-48
2023/11/16 18:34:37;;;;;;;0.10;0.10;;;;;;;4.54;71.02;100619.41;15615389;28;20053;-46
2023/11/16 18:42:12;;;;;;;0.08;0.08;;;;;;;4.56;70.72;100615.56;15595073;28;20107;-50
2023/11/16 18:49:46;;;;;;;0.00;0.00;;;;;;;4.49;70.54;100609.31;15596479;28;20045;-46
2023/11/16 18:57:21;;;;;;;0.30;0.30;;;;;;;4.07;70.76;100601.69;15595632;28;20046;-49
2023/11/16 19:05:02;;;;;;;0.15;0.15;;;;;;;4.04;71.81;100604.66;15596177;28;20190;-45
2023/11/16 19:12:39;;;;;;;3.50;1.23;;;;;;;3.58;75.23;100597.31;15605935;28;20552;-47
2023/11/16 19:20:17;;;;;;;0.47;0.47;;;;;;;3.43;75.63;100587.53;15611790;28;20045;-49
2023/11/16 19:27:56;;;;;;;0.30;0.30;;;;;;;3.72;73.71;100593.13;15603782;28;20060;-48
2023/11/16 19:35:33;;;;;;;0.32;0.17;;;;;;;3.69;73.53;100595.31;15586217;28;20047;-50
2023/11/16 19:43:10;;;;;;;0.00;0.00;;;;;;;3.61;75.33;100592.66;15593125;28;20036;-50
2023/11/16 19:50:45;;;;;;;0.28;0.28;;;;;;;3.65;73.80;100591.34;15602338;28;20129;-52
2023/11/16 19:58:22;;;;;;;0.95;0.90;;;;;;;3.60;73.76;100593.69;15601919;28;20049;-51
2023/11/16 20:05:59;;;;;;;0.10;0.10;;;;;;;3.50;73.58;100580.59;15611985;28;20045;-48
2023/11/16 20:13:36;;;;;;;0.32;0.32;;;;;;;3.49;75.60;100584.22;15604622;28;20057;-51
2023/11/16 20:21:10;;;;;;;0.03;0.03;;;;;;;3.73;74.95;100580.69;15613650;28;20041;-50
2023/11/16 20:28:47;;;;;;;0.32;0.32;;;;;;;3.96;73.86;100570.16;15608266;28;20049;-51
2023/11/16 20:36:23;;;;;;;0.52;0.52;;;;;;;3.78;73.76;100570.41;15615964;28;20412;-52
2023/11/16 20:43:58;;;;;;;0.00;0.00;;;;;;;3.70;72.88;100559.81;15597302;28;20054;-55
2023/11/16 20:51:31;;;;;;;0.52;0.52;;;;;;;3.69;72.68;100558.97;15611562;28;20073;-49
2023/11/16 20:59:07;;;;;;;0.73;0.73;;;;;;;3.55;73.61;100560.50;15619502;28;20037;-50
2023/11/16 21:06:43;;;;;;;0.30;0.20;;;;;;;3.56;73.31;100553.38;15609333;28;20104;-52
2023/11/16 21:14:21;;;;;;;0.10;0.10;;;;;;;3.41;74.12;100550.59;15598055;28;20041;-49
2023/11/16 21:21:55;;;;;;;0.00;0.00;;;;;;;3.35;73.76;100535.31;15595220;28;20100;-51
2023/11/16 21:29:30;;;;;;;0.00;0.00;;;;;;;3.49;73.01;100537.28;15616472;28;20465;-53
2023/11/16 21:37:05;;;;;;;0.05;0.05;;;;;;;3.38;72.10;100529.69;15618168;28;20045;-55
2023/11/16 21:44:42;;;;;;;0.30;0.30;;;;;;;3.45;73.24;100530.69;15596682;28;20046;-53
2023/11/16 21:52:17;;;;;;;0.00;0.00;;;;;;;3.59;72.39;100521.19;15616389;28;20049;-49
2023/11/16 21:59:52;;;;;;;0.00;0.00;;;;;;;3.49;72.26;100536.44;15599674;28;20095;-53
2023/11/16 22:07:27;;;;;;;0.00;0.00;;;;;;;3.11;72.80;100535.34;15597276;28;20416;-52
2023/11/16 22:15:04;;;;;;;0.10;0.10;;;;;;;2.99;72.71;100533.03;15602979;28;20041;-50
2023/11/16 22:22:38;;;;;;;0.10;0.10;;;;;;;2.99;72.50;100530.41;15616664;28;20045;-53
2023/11/16 22:30:17;;;;;;;0.10;0.10;;;;;;;2.79;72.46;100535.19;15614133;28;20197;-52
2023/11/16 22:37:50;;;;;;;0.08;0.08;;;;;;;2.38;72.79;100536.09;15613971;28;20543;-50
2023/11/16 22:45:26;;;;;;;0.40;0.40;;;;;;;2.29;73.22;100536.09;15612815;28;20045;-50
2023/11/16 22:53:00;;;;;;;0.55;0.55;;;;;;;1.74;75.72;100531.25;15605375;28;20042;-52
2023/11/16 23:00:46;;;;;;;0.00;0.00;;;;;;;1.90;75.55;100534.97;15611077;28;20049;-50
2023/11/16 23:08:19;;;;;;;0.10;0.10;;;;;;;1.81;76.38;100538.56;15593698;28;20499;-52
2023/11/16 23:15:54;;;;;;;0.20;0.20;;;;;;;2.10;75.09;100546.97;15609477;28;20046;-50
2023/11/16 23:23:28;;;;;;;0.60;0.60;;;;;;;2.13;74.56;100537.88;15614686;28;20052;-49
2023/11/16 23:31:04;;;;;;;1.08;0.98;;;;;;;2.02;73.90;100544.28;15593019;28;20044;-50
2023/11/16 23:38:37;;;;;;;0.10;0.10;;;;;;;2.17;74.36;100550.63;15610098;28;20041;-50
2023/11/16 23:46:13;;;;;;;0.10;0.10;;;;;;;2.05;74.37;100546.59;15610119;28;20045;-48
2023/11/16 23:53:47;;;;;;;0.00;0.00;;;;;;;2.26;74.24;100564.72;15592340;28;20045;-48
